createdAt,value
2023-02-03T00:02:03.911Z,99999.73
2023-02-03T00:04:32.340Z,100001.32
2023-02-03T00:06:59.541Z,100005.31
2023-02-03T00:09:26.561Z,100003.27
2023-02-03T00:11:53.477Z,100007.33
2023-02-03T00:14:20.353Z,100003.52
2023-02-03T00:16:47.404Z,100008.95
2023-02-03T00:19:16.484Z,100008.11
2023-02-03T00:21:44.588Z,100010.36
2023-02-03T00:24:11.546Z,100012.33
2023-02-03T00:26:42.426Z,100015.09
2023-02-03T00:29:09.237Z,100018.16
2023-02-03T00:31:38.589Z,100015.56
2023-02-03T00:34:05.936Z,100015.30
2023-02-03T00:36:33.202Z,100016.06
2023-02-03T00:39:00.375Z,100017.15
2023-02-03T00:41:28.891Z,100016.40
2023-02-03T00:43:55.651Z,100018.21
2023-02-03T00:46:22.451Z,100014.20
2023-02-03T00:48:49.450Z,100015.95
2023-02-03T00:51:16.370Z,100014.27
2023-02-03T00:53:43.142Z,100018.69
2023-02-03T00:56:12.076Z,100018.27
2023-02-03T00:58:39.887Z,100014.70
2023-02-03T01:01:07.310Z,100017.50
2023-02-03T01:03:35.487Z,100013.21
2023-02-03T01:06:09.837Z,100013.11
2023-02-03T01:08:37.321Z,100017.26
2023-02-03T01:11:16.680Z,100016.02
2023-02-03T01:13:44.160Z,100017.01
2023-02-03T01:16:12.353Z,100020.34
2023-02-03T01:18:39.952Z,100019.48
2023-02-03T01:21:11.967Z,100014.29
2023-02-03T01:23:38.857Z,100019.60
2023-02-03T01:26:08.178Z,100022.13
2023-02-03T01:28:35.249Z,100020.88
2023-02-03T01:31:09.554Z,100021.10
2023-02-03T01:33:36.757Z,100022.96
2023-02-03T01:36:06.002Z,100025.29
2023-02-03T01:38:33.195Z,100023.77
2023-02-03T01:40:59.918Z,100019.25
2023-02-03T01:43:37.058Z,100017.71
2023-02-03T01:46:14.894Z,100020.45
2023-02-03T01:48:41.645Z,100015.48
2023-02-03T01:51:08.468Z,100017.88
2023-02-03T01:53:36.838Z,100012.80
2023-02-03T01:56:04.602Z,100014.12
2023-02-03T01:58:34.460Z,100013.07
2023-02-03T02:01:01.727Z,100017.24
2023-02-03T02:03:40.712Z,100016.72
2023-02-03T02:06:09.756Z,100020.16
2023-02-03T02:08:37.051Z,100017.60
2023-02-03T02:11:04.298Z,100017.30
2023-02-03T02:13:34.469Z,100010.77
2023-02-03T02:16:16.029Z,100009.55
2023-02-03T02:19:07.628Z,100004.92
2023-02-03T02:21:56.137Z,100008.15
2023-02-03T02:24:29.710Z,100004.80
2023-02-03T02:27:41.145Z,100008.83
2023-02-03T02:30:27.059Z,100009.93
2023-02-03T02:33:06.980Z,100019.20
2023-02-03T02:35:45.556Z,100023.66
2023-02-03T02:38:33.608Z,100019.75
2023-02-03T02:41:07.646Z,100022.45
2023-02-03T02:43:43.721Z,100019.30
2023-02-03T02:46:16.226Z,100016.05
2023-02-03T02:49:17.747Z,100017.82
2023-02-03T02:51:44.731Z,100016.39
2023-02-03T02:54:15.115Z,100023.91
2023-02-03T02:56:41.956Z,100024.33
2023-02-03T02:59:08.716Z,100019.73
2023-02-03T03:01:35.677Z,100015.63
2023-02-03T03:04:04.487Z,100011.44
2023-02-03T03:07:08.167Z,100012.56
2023-02-03T03:09:43.880Z,100010.01
2023-02-03T03:12:14.543Z,100004.41
2023-02-03T03:14:45.039Z,100004.58
2023-02-03T03:17:13.585Z,100015.29
2023-02-03T03:19:46.462Z,100014.77
2023-02-03T03:22:14.947Z,100013.80
2023-02-03T03:24:48.624Z,100008.52
2023-02-03T03:27:23.776Z,100012.41
2023-02-03T03:29:54.383Z,100020.08
2023-02-03T03:32:21.202Z,100026.02
2023-02-03T03:34:48.247Z,100023.66
2023-02-03T03:37:23.370Z,100028.87
2023-02-03T03:39:58.641Z,100029.45
2023-02-03T03:42:32.592Z,100027.89
2023-02-03T03:45:00.897Z,100024.69
2023-02-03T03:47:32.631Z,100023.30
2023-02-03T03:49:59.669Z,100021.66
2023-02-03T03:52:28.767Z,100023.72
2023-02-03T03:54:55.745Z,100021.98
2023-02-03T03:57:35.220Z,100017.42
2023-02-03T04:00:04.271Z,100014.85
2023-02-03T04:02:39.524Z,100019.03
2023-02-03T04:05:07.981Z,100018.50
2023-02-03T04:07:42.137Z,100022.30
2023-02-03T04:10:30.470Z,100022.59
2023-02-03T04:12:57.334Z,100026.91
2023-02-03T04:15:24.155Z,100029.56
2023-02-03T04:17:50.870Z,100034.20
2023-02-03T04:20:17.834Z,100032.63
2023-02-03T04:22:46.926Z,100030.04
2023-02-03T04:25:13.829Z,100036.23
2023-02-03T04:27:41.069Z,100042.14
2023-02-03T04:30:09.168Z,100041.70
2023-02-03T04:32:36.614Z,100040.20
2023-02-03T04:35:04.389Z,100043.45
2023-02-03T04:37:32.257Z,100042.52
2023-02-03T04:40:00.334Z,100040.67
2023-02-03T04:42:27.248Z,100044.04
2023-02-03T04:44:54.115Z,100045.54
2023-02-03T04:47:20.944Z,100043.71
2023-02-03T04:49:47.752Z,100038.94
2023-02-03T04:52:14.599Z,100039.89
2023-02-03T04:54:41.834Z,100037.83
2023-02-03T05:10:51.238Z,100046.39
2023-02-03T05:13:19.516Z,100044.33
2023-02-03T05:15:46.571Z,100038.02
2023-02-03T05:18:14.226Z,100045.31
2023-02-03T05:20:41.068Z,100045.40
2023-02-03T05:23:07.877Z,100040.33
2023-02-03T05:25:34.694Z,100041.11
2023-02-03T05:28:01.532Z,100044.29
2023-02-03T05:30:29.261Z,100054.85
2023-02-03T05:32:56.197Z,100065.31
2023-02-03T05:35:23.034Z,100068.95
2023-02-03T05:37:50.224Z,100080.16
2023-02-03T05:40:36.068Z,100085.67
2023-02-03T05:43:03.824Z,100085.66
2023-02-03T05:45:31.330Z,100090.93
2023-02-03T05:47:58.154Z,100091.67
2023-02-03T05:50:26.642Z,100094.52
2023-02-03T05:53:09.081Z,100095.59
2023-02-03T05:55:36.028Z,100100.90
2023-02-03T05:58:04.011Z,100103.69
2023-02-03T06:00:30.843Z,100106.55
2023-02-03T06:02:59.498Z,100105.46
2023-02-03T06:05:26.306Z,100106.97
2023-02-03T06:07:53.261Z,100112.67
2023-02-03T06:10:20.165Z,100114.85
2023-02-03T06:12:47.417Z,100112.05
2023-02-03T06:15:14.380Z,100112.78
2023-02-03T06:17:46.439Z,100115.52
2023-02-03T06:20:14.353Z,100115.20
2023-02-03T06:22:41.371Z,100115.92
2023-02-03T06:25:08.128Z,100113.85
2023-02-03T06:27:35.255Z,100113.46
2023-02-03T06:30:02.192Z,100113.00
2023-02-03T06:32:29.606Z,100113.63
2023-02-03T06:34:57.835Z,100110.98
2023-02-03T06:37:24.940Z,100114.28
2023-02-03T06:39:52.221Z,100120.60
2023-02-03T06:42:18.926Z,100123.58
2023-02-03T06:44:46.969Z,100125.80
2023-02-03T06:47:13.715Z,100124.27
2023-02-03T06:49:42.104Z,100125.94
2023-02-03T06:52:08.864Z,100121.51
2023-02-03T06:54:36.921Z,100122.15
2023-02-03T06:57:03.798Z,100124.84
2023-02-03T06:59:31.177Z,100126.87
2023-02-03T07:01:57.919Z,100128.64
2023-02-03T07:04:24.668Z,100126.92
2023-02-03T07:06:51.759Z,100132.52
2023-02-03T07:09:18.487Z,100132.59
2023-02-03T07:11:45.234Z,100136.34
2023-02-03T07:14:11.954Z,100135.81
2023-02-03T07:16:39.326Z,100134.92
2023-02-03T07:19:06.219Z,100130.92
2023-02-03T07:21:34.722Z,100128.02
2023-02-03T07:24:02.627Z,100128.40
2023-02-03T07:26:30.255Z,100132.54
2023-02-03T07:28:59.588Z,100132.86
2023-02-03T07:31:26.386Z,100130.49
2023-02-03T07:33:53.596Z,100136.33
2023-02-03T07:36:20.327Z,100132.64
2023-02-03T07:38:47.351Z,100138.20
2023-02-03T07:41:15.095Z,100138.48
2023-02-03T07:43:43.501Z,100138.34
2023-02-03T07:46:10.240Z,100138.48
2023-02-03T07:48:37.713Z,100140.97
2023-02-03T07:51:04.989Z,100139.97
2023-02-03T07:53:31.774Z,100137.97
2023-02-03T07:56:02.480Z,100140.52
2023-02-03T07:58:29.575Z,100141.80
2023-02-03T08:00:56.961Z,100146.52
2023-02-03T08:03:23.821Z,100148.30
2023-02-03T08:05:52.073Z,100148.96
2023-02-03T08:08:18.913Z,100153.95
2023-02-03T08:10:48.217Z,100154.30
2023-02-03T08:13:15.263Z,100155.83
2023-02-03T08:15:42.097Z,100161.36
2023-02-03T08:18:09.081Z,100162.94
2023-02-03T08:20:37.104Z,100163.99
2023-02-03T08:23:04.141Z,100165.75
2023-02-03T08:25:31.147Z,100170.04
2023-02-03T08:27:58.916Z,100171.42
2023-02-03T08:30:26.676Z,100170.25
2023-02-03T08:32:53.613Z,100174.56
2023-02-03T08:35:22.376Z,100177.60
2023-02-03T08:37:49.527Z,100183.98
2023-02-03T08:40:17.098Z,100188.23
2023-02-03T08:42:43.836Z,100192.34
2023-02-03T08:45:10.698Z,100195.00
2023-02-03T08:47:39.645Z,100200.98
2023-02-03T08:50:07.338Z,100203.05
2023-02-03T08:52:34.319Z,100200.54
2023-02-03T08:55:01.170Z,100205.25
2023-02-03T08:57:31.998Z,100205.82
2023-02-03T08:59:58.757Z,100206.52
2023-02-03T09:02:25.516Z,100216.09
2023-02-03T09:04:52.465Z,100217.45
2023-02-03T09:07:19.268Z,100216.86
2023-02-03T09:09:46.050Z,100224.00
2023-02-03T09:12:12.968Z,100221.03
2023-02-03T09:14:40.000Z,100223.56
2023-02-03T09:17:10.057Z,100223.19
2023-02-03T09:19:37.179Z,100222.59
2023-02-03T09:22:06.278Z,100223.38
2023-02-03T09:24:33.343Z,100225.67
2023-02-03T09:27:01.034Z,100231.10
2023-02-03T09:29:28.009Z,100233.54
2023-02-03T09:31:55.126Z,100232.52
2023-02-03T09:34:22.062Z,100229.63
2023-02-03T09:36:49.313Z,100229.72
2023-02-03T09:39:17.057Z,100231.95
2023-02-03T09:41:48.421Z,100227.88
2023-02-03T09:44:29.211Z,100227.28
2023-02-03T09:47:01.568Z,100229.74
2023-02-03T09:49:32.241Z,100221.36
2023-02-03T09:52:13.319Z,100217.86
2023-02-03T09:54:43.126Z,100215.37
2023-02-03T09:57:30.308Z,100214.80
2023-02-03T10:00:00.057Z,100213.19
2023-02-03T10:02:47.193Z,100211.58
2023-02-03T10:05:14.495Z,100204.73
2023-02-03T10:08:08.387Z,100203.68
2023-02-03T10:10:42.744Z,100208.23
2023-02-03T10:13:22.996Z,100211.46
2023-02-03T10:16:26.468Z,100216.77
2023-02-03T10:18:54.736Z,100215.34
2023-02-03T10:21:41.038Z,100213.06
2023-02-03T10:24:15.048Z,100213.88
2023-02-03T10:26:46.094Z,100209.60
2023-02-03T10:29:50.035Z,100206.56
2023-02-03T10:32:17.004Z,100200.10
2023-02-03T10:34:44.619Z,100197.61
2023-02-03T10:37:31.646Z,100195.63
2023-02-03T10:39:59.365Z,100190.59
2023-02-03T10:42:46.333Z,100189.40
2023-02-03T10:45:13.266Z,100187.36
2023-02-03T10:47:46.461Z,100185.05
2023-02-03T10:50:16.482Z,100187.59
2023-02-03T10:52:43.321Z,100184.70
2023-02-03T10:55:26.558Z,100182.39
2023-02-03T10:57:53.681Z,100175.75
2023-02-03T11:00:32.336Z,100175.38
2023-02-03T11:03:27.812Z,100173.88
2023-02-03T11:06:14.667Z,100171.45
2023-02-03T11:08:43.667Z,100174.63
2023-02-03T11:11:15.728Z,100170.35
2023-02-03T11:13:42.566Z,100169.38
2023-02-03T11:16:13.758Z,100172.24
2023-02-03T11:18:48.008Z,100172.35
2023-02-03T11:21:19.113Z,100168.77
2023-02-03T11:23:56.312Z,100167.22
2023-02-03T11:26:48.587Z,100175.31
2023-02-03T11:29:34.851Z,100172.20
2023-02-03T11:32:23.633Z,100174.15
2023-02-03T11:35:03.448Z,100171.06
2023-02-03T11:37:37.425Z,100174.56
2023-02-03T11:53:57.265Z,100168.56
2023-02-03T11:56:50.901Z,100168.58
2023-02-03T11:59:31.469Z,100167.17
2023-02-03T12:02:44.460Z,100165.41
2023-02-03T12:05:33.993Z,100164.90
2023-02-03T12:08:40.752Z,100159.36
2023-02-03T12:11:16.104Z,100160.93
2023-02-03T12:14:00.798Z,100158.13
2023-02-03T12:16:51.059Z,100156.64
2023-02-03T12:19:22.715Z,100154.56
2023-02-03T12:21:58.491Z,100153.93
2023-02-03T12:24:58.048Z,100161.31
2023-02-03T12:27:33.851Z,100162.08
2023-02-03T12:30:05.919Z,100159.77
2023-02-03T12:32:37.058Z,100161.71
2023-02-03T12:35:23.870Z,100164.30
2023-02-03T12:38:22.863Z,100166.91
2023-02-03T12:40:53.535Z,100161.52
2023-02-03T12:43:43.699Z,100161.64
2023-02-03T12:46:17.158Z,100164.31
2023-02-03T12:49:06.070Z,100165.52
2023-02-03T12:52:03.832Z,100165.34
2023-02-03T12:55:07.124Z,100163.18
2023-02-03T12:57:44.721Z,100162.09
2023-02-03T13:00:27.256Z,100168.48
2023-02-03T13:03:15.589Z,100168.77
2023-02-03T13:05:50.964Z,100166.27
2023-02-03T13:08:38.359Z,100161.21
2023-02-03T13:11:15.861Z,100157.98
2023-02-03T13:13:48.643Z,100165.73
2023-02-03T13:16:23.939Z,100164.70
2023-02-03T13:19:02.196Z,100164.50
2023-02-03T13:21:31.616Z,100166.24
2023-02-03T13:24:00.593Z,100165.95
2023-02-03T13:26:32.568Z,100166.64
2023-02-03T13:29:13.228Z,100166.62
2023-02-03T13:32:15.951Z,100166.55
2023-02-03T13:35:35.395Z,100161.09
2023-02-03T13:38:10.079Z,100160.37
2023-02-03T13:41:28.885Z,100163.14
2023-02-03T13:43:57.481Z,100157.59
2023-02-03T13:46:29.441Z,100158.30
2023-02-03T13:48:59.173Z,100161.58
2023-02-03T13:51:34.321Z,100160.61
2023-02-03T13:54:08.712Z,100160.59
2023-02-03T13:56:39.653Z,100161.18
2023-02-03T13:59:13.986Z,100164.90
2023-02-03T14:01:43.073Z,100165.14
2023-02-03T14:04:26.677Z,100164.34
2023-02-03T14:06:58.842Z,100169.20
2023-02-03T14:09:39.792Z,100168.45
2023-02-03T14:12:13.712Z,100165.10
2023-02-03T14:15:03.359Z,100166.34
2023-02-03T14:17:34.595Z,100164.20
2023-02-03T14:20:04.124Z,100162.95
2023-02-03T14:22:32.676Z,100167.83
2023-02-03T14:25:05.195Z,100166.09
2023-02-03T14:27:33.657Z,100164.06
2023-02-03T14:30:15.389Z,100168.16
2023-02-03T14:32:54.711Z,100170.02
2023-02-03T14:35:30.945Z,100169.33
2023-02-03T14:38:01.379Z,100168.09
2023-02-03T14:40:55.047Z,100165.11
2023-02-03T14:43:40.055Z,100161.96
2023-02-03T14:46:39.755Z,100164.21
2023-02-03T14:49:30.038Z,100165.39
2023-02-03T14:52:17.158Z,100169.18
2023-02-03T14:55:33.881Z,100170.98
2023-02-03T14:58:04.300Z,100171.98
2023-02-03T15:00:35.975Z,100171.38
2023-02-03T15:03:07.091Z,100169.95
2023-02-03T15:05:43.571Z,100170.30
2023-02-03T15:08:44.335Z,100169.89
2023-02-03T15:11:43.545Z,100171.11
2023-02-03T15:14:26.029Z,100171.23
2023-02-03T15:16:59.667Z,100172.23
2023-02-03T15:19:49.520Z,100174.59
2023-02-03T15:22:28.675Z,100176.98
2023-02-03T15:24:59.388Z,100176.33
2023-02-03T15:27:32.492Z,100178.05
2023-02-03T15:30:35.133Z,100181.37
2023-02-03T15:33:18.255Z,100183.65
2023-02-03T15:35:47.290Z,100184.95
2023-02-03T15:38:18.845Z,100186.38
2023-02-03T15:40:54.804Z,100186.54
2023-02-03T15:43:43.374Z,100186.48
2023-02-03T15:46:28.168Z,100191.10
2023-02-03T15:49:03.879Z,100189.71
2023-02-03T15:51:38.555Z,100194.24
2023-02-03T15:54:19.802Z,100190.33
2023-02-03T15:56:57.280Z,100190.34
2023-02-03T15:59:33.036Z,100192.73
2023-02-03T16:02:03.036Z,100191.64
2023-02-03T16:04:32.568Z,100189.23
2023-02-03T16:07:01.362Z,100194.02
2023-02-03T16:09:52.157Z,100192.48
2023-02-03T16:12:33.827Z,100194.71
2023-02-03T16:15:02.654Z,100194.13
2023-02-03T16:17:34.449Z,100192.66
2023-02-03T16:20:12.218Z,100193.16
2023-02-03T16:23:06.809Z,100195.52
2023-02-03T16:25:36.156Z,100191.58
2023-02-03T16:28:33.387Z,100193.79
2023-02-03T16:31:22.684Z,100194.44
2023-02-03T16:34:10.276Z,100198.77
2023-02-03T16:37:01.913Z,100193.29
2023-02-03T16:39:48.929Z,100193.13
2023-02-03T16:42:37.585Z,100190.44
2023-02-03T16:45:33.578Z,100185.48
2023-02-03T16:48:21.671Z,100183.27
2023-02-03T16:50:58.957Z,100188.71
2023-02-03T16:53:30.471Z,100188.67
2023-02-03T16:56:01.859Z,100187.04
2023-02-03T16:58:30.610Z,100185.88
2023-02-03T17:01:00.258Z,100187.34
2023-02-03T17:03:29.628Z,100184.55
2023-02-03T17:06:01.815Z,100183.27
2023-02-03T17:08:30.403Z,100185.60
2023-02-03T17:11:06.056Z,100181.84
2023-02-03T17:13:34.489Z,100178.85
2023-02-03T17:16:08.097Z,100180.53
2023-02-03T17:18:36.501Z,100183.34
2023-02-03T17:21:10.331Z,100182.00
2023-02-03T17:23:39.393Z,100183.86
2023-02-03T17:26:09.657Z,100183.07
2023-02-03T17:28:39.829Z,100184.34
2023-02-03T17:31:08.096Z,100182.59
2023-02-03T17:33:36.638Z,100179.58
2023-02-03T17:36:16.544Z,100184.33
2023-02-03T17:55:23.899Z,100191.58
2023-02-03T17:57:52.174Z,100192.95
2023-02-03T18:00:21.202Z,100194.31
2023-02-03T18:02:52.428Z,100188.06
2023-02-03T18:05:21.101Z,100192.19
2023-02-03T18:07:50.612Z,100194.39
2023-02-03T18:10:19.201Z,100193.63
2023-02-03T18:12:48.794Z,100195.27
2023-02-03T18:15:17.689Z,100197.08
2023-02-03T18:17:46.027Z,100195.68
2023-02-03T18:20:14.453Z,100195.05
2023-02-03T18:22:44.554Z,100194.90
2023-02-03T18:25:17.047Z,100193.85
2023-02-03T18:27:47.276Z,100193.75
2023-02-03T18:30:18.105Z,100191.23
2023-02-03T18:32:50.804Z,100190.68
2023-02-03T18:35:19.668Z,100190.81
2023-02-03T18:37:48.341Z,100184.90
2023-02-03T18:40:17.187Z,100185.80
2023-02-03T18:42:45.852Z,100183.08
2023-02-03T18:45:14.343Z,100178.20
2023-02-03T18:47:43.031Z,100173.78
2023-02-03T18:50:13.710Z,100170.87
2023-02-03T18:52:42.305Z,100169.64
2023-02-03T18:55:10.844Z,100170.83
2023-02-03T18:57:40.652Z,100172.86
2023-02-03T19:00:09.825Z,100165.73
2023-02-03T19:02:38.457Z,100165.30
2023-02-03T19:05:08.352Z,100167.79
2023-02-03T19:07:37.764Z,100163.03
2023-02-03T19:10:07.157Z,100161.13
2023-02-03T19:12:36.264Z,100164.14
2023-02-03T19:15:05.770Z,100166.83
2023-02-03T19:17:34.262Z,100169.02
2023-02-03T19:20:03.175Z,100169.39
2023-02-03T19:22:33.015Z,100164.26
2023-02-03T19:25:01.653Z,100163.89
2023-02-03T19:27:30.421Z,100157.34
2023-02-03T19:29:59.037Z,100155.64
2023-02-03T19:32:27.465Z,100151.02
2023-02-03T19:34:55.990Z,100150.85
2023-02-03T19:37:24.591Z,100151.90
2023-02-03T19:39:52.906Z,100151.02
2023-02-03T19:42:21.504Z,100154.13
2023-02-03T19:44:51.607Z,100154.27
2023-02-03T19:47:20.262Z,100149.79
2023-02-03T19:49:48.958Z,100155.64
2023-02-03T19:52:17.437Z,100154.41
2023-02-03T19:54:46.033Z,100154.55
2023-02-03T20:09:39.977Z,100144.96
2023-02-03T20:12:08.758Z,100140.78
2023-02-03T20:14:37.931Z,100138.48
2023-02-03T20:17:09.483Z,100139.05
2023-02-03T20:19:38.169Z,100142.70
2023-02-03T20:22:06.807Z,100142.90
2023-02-03T20:24:35.192Z,100145.77
2023-02-03T20:27:04.986Z,100146.40
2023-02-03T20:29:33.651Z,100148.57
2023-02-03T20:32:05.135Z,100149.98
2023-02-03T20:34:34.226Z,100152.81
2023-02-03T20:37:02.761Z,100155.08
2023-02-03T20:39:32.846Z,100155.09
2023-02-03T20:42:01.381Z,100153.78
2023-02-03T20:44:29.782Z,100154.88
2023-02-03T20:47:03.756Z,100154.39
2023-02-03T20:49:32.288Z,100155.79
2023-02-03T20:52:01.096Z,100153.94
2023-02-03T20:54:29.939Z,100155.60
2023-02-03T20:56:58.368Z,100154.69
2023-02-03T20:59:27.220Z,100153.85
2023-02-03T21:01:55.965Z,100152.77
2023-02-03T21:04:45.939Z,100151.09
2023-02-03T21:07:16.448Z,100149.35
2023-02-03T21:09:44.782Z,100149.86
2023-02-03T21:12:13.194Z,100148.98
2023-02-03T21:14:43.406Z,100147.80
2023-02-03T21:17:22.417Z,100145.31
2023-02-03T21:19:52.267Z,100144.07
2023-02-03T21:22:27.721Z,100142.47
2023-02-03T21:24:57.590Z,100144.37
2023-02-03T21:27:30.394Z,100144.46
2023-02-03T21:30:00.275Z,100147.05
2023-02-03T21:32:38.567Z,100148.91
2023-02-03T21:35:39.699Z,100147.48
2023-02-03T21:38:31.661Z,100145.20
2023-02-03T21:41:01.467Z,100144.98
2023-02-03T21:43:36.475Z,100144.13
2023-02-03T21:46:05.150Z,100143.14
2023-02-03T21:48:40.024Z,100146.01
2023-02-03T21:51:22.790Z,100148.34
2023-02-03T21:54:16.300Z,100147.59
2023-02-03T21:56:45.850Z,100150.55
2023-02-03T21:59:21.985Z,100148.67
2023-02-03T22:01:50.352Z,100150.67
2023-02-03T22:04:18.551Z,100150.36
2023-02-03T22:06:49.983Z,100153.67
2023-02-03T22:09:21.178Z,100157.09
2023-02-03T22:12:10.515Z,100157.75
2023-02-03T22:14:39.874Z,100155.44
2023-02-03T22:17:08.827Z,100158.86
2023-02-03T22:19:37.044Z,100156.14
2023-02-03T22:22:05.430Z,100157.77
2023-02-03T22:24:33.693Z,100155.48
2023-02-03T22:27:02.687Z,100153.01
2023-02-03T22:29:31.170Z,100152.16
2023-02-03T22:32:00.030Z,100152.27
2023-02-03T22:34:28.471Z,100150.88
2023-02-03T22:36:56.851Z,100146.96
2023-02-03T22:39:25.478Z,100143.73
2023-02-03T22:41:53.665Z,100142.95
2023-02-03T22:44:21.878Z,100141.48
2023-02-03T22:46:50.040Z,100139.37
2023-02-03T22:49:18.315Z,100134.11
2023-02-03T22:51:46.779Z,100132.66
2023-02-03T22:54:14.890Z,100131.94
2023-02-03T22:56:43.905Z,100131.55
2023-02-03T22:59:13.335Z,100139.17
2023-02-03T23:01:43.938Z,100136.77
2023-02-03T23:04:13.176Z,100137.35
2023-02-03T23:06:41.471Z,100136.02
2023-02-03T23:09:09.619Z,100136.71
2023-02-03T23:11:38.253Z,100136.98
2023-02-03T23:14:10.370Z,100135.19
2023-02-03T23:16:39.896Z,100137.00
2023-02-03T23:19:08.079Z,100139.91
2023-02-03T23:21:38.802Z,100142.61
2023-02-03T23:24:09.140Z,100143.99
2023-02-03T23:26:37.364Z,100142.91
2023-02-03T23:29:05.660Z,100140.65
2023-02-03T23:31:34.058Z,100141.57
2023-02-03T23:34:21.094Z,100139.66
2023-02-03T23:36:49.552Z,100143.54
2023-02-03T23:39:17.720Z,100145.39
2023-02-03T23:41:46.751Z,100149.05
2023-02-03T23:44:15.023Z,100149.81
2023-02-03T23:46:43.321Z,100150.71
2023-02-03T23:49:11.511Z,100146.16
2023-02-03T23:51:39.692Z,100146.52
2023-02-03T23:54:07.899Z,100150.38
2023-02-03T23:56:36.674Z,100149.42
2023-02-03T23:59:04.834Z,100150.45
